Detall de PIREP

Printer-friendly versionPDF version

[2013/04/30 07:24:00]
Flight IATA:CT0001
Pilot Number:041
Company ICAO:CAT
Aircraft Type:BE20/A
PAX:5
Departing Airport: LELC
Destination Airport: LEGE
Alternate Airport:LEPA
Online: VATSIM
Route:DCT ALT B46 MITOS N608 SOPET B28 EBROX DCT LATRO H110 MAMUK DCT
Flight Level:F120
No Slew and time accel
No pause
Crash detect
Detect pilot in Cockpit between each 30 and 45 minutes
07:24 Zero fuel Weight: 8738 Lbs, Fuel Weight: 3668 Lbs
07:24 VATSIM:LELC 300700Z 33004KT 290V010 9999 FEW025 14/06 Q1012 NOSIG
07:24 VATSIM:LEGE 300700Z VRB02KT 2000 VCFG SCT003 BKN010 OVC040 12/12 Q1011
07:24 VOICE CATALONIAN
07:30 Parking Brakes off
07:35 Take-off
07:35 Take off Weight: 12371 Lbs
07:35 Wind: 058º @ 001 Knots Heading: 044º
07:35 POS N37º 46´ 50´´ W000º 48´ 16´´
07:35 Flaps:1 at 142 Knots
07:36 Gear Up: 145 Knots
07:36 Flaps:0 at 143 Knots
07:48 TOC
07:48 Fuel Weight: 3466 Lb
07:50 Wind:206º@014 Knots Heading: 069º Ground Speed: 244 Knots Altitude 11955 ft
08:05 Wind:154º@013 Knots Heading: 002º Ground Speed: 250 Knots Altitude 11955 ft
08:20 Wind:154º@013 Knots Heading: 049º Ground Speed: 249 Knots Altitude 11948 ft
08:35 Wind:151º@018 Knots Heading: 018º Ground Speed: 250 Knots Altitude 11955 ft
08:49 TOD
08:49 Fuel Weight: 2783 Lb
08:50 Wind:166º@021 Knots Heading: 083º Ground Speed: 248 Knots Altitude 11328 ft
09:05 Wind:164º@001 Knots Heading: 066º Ground Speed: 195 Knots Altitude 3979 ft
09:06 Flaps:1 at 147 Knots
09:10 Gear Down: 145 Knots
09:11 Flaps:2 at 141 Knots
09:15 TouchDown:Rate -123 ft/min Speed: 98 Knots
09:16 Flaps:1 at 77 Knots
09:16 Flaps:0 at 74 Knots
09:16 VATSIM:LEGE 300900Z 18002KT 6000 BCFG BKN005 OVC026 14/13 Q1012
09:16 Land
09:16 Wind:167º@002 Knots
09:16 Heading: 192º
09:16 Flight Duration: 01:41
09:16 Landing Weight: 11333 Lbs
09:16 POS N41º 54´ 05´´ E002º 45´ 38´´
09:18 Parking brakes on
09:18 Block to Block Duration: 01:49
09:18 Final Fuel: 2588 Lbls
09:18 Spent Fuel: 1080 Lbls
09:18 Flight Length: 377 NM
09:18 TOD Land Length: 82 NM

Exportar CSV

Powered by Drupal - Modified by Danger4k